Time;durP1;ratioP1;P1;durP2;ratioP2;P2;SDS_P1;SDS_P2;PMS_P1;PMS_P2;Temp;Humidity;BMP_temperature;BMP_pressure;BME280_temperature;BME280_humidity;BME280_pressure;Samples;Min_cycle;Max_cycle;Signal;HPM_P1;HPM_P2
2023/06/01 00:01:12;;;;;;;2.63;2.13;;;21.70;56.10;;;;;;5039620;28;20474;-81
2023/06/01 00:03:42;;;;;;;3.83;1.97;;;21.90;55.90;;;;;;5039358;28;21069;-82
2023/06/01 00:06:10;;;;;;;2.50;2.00;;;21.70;56.00;;;;;;5031327;28;20456;-83
2023/06/01 00:08:37;;;;;;;2.60;1.77;;;21.60;56.30;;;;;;5032893;28;20457;-83
2023/06/01 00:11:04;;;;;;;3.00;2.00;;;21.60;56.50;;;;;;5031606;28;20459;-81
2023/06/01 00:13:31;;;;;;;2.53;1.83;;;21.70;56.70;;;;;;5043694;28;20436;-83
2023/06/01 00:16:01;;;;;;;4.63;1.83;;;21.80;56.80;;;;;;5034582;28;20455;-83
2023/06/01 00:18:28;;;;;;;2.30;1.50;;;21.60;56.90;;;;;;5036324;28;20472;-83
2023/06/01 00:21:00;;;;;;;2.23;1.67;;;21.60;57.30;;;;;;5045501;28;20523;-83
2023/06/01 00:23:28;;;;;;;1.60;1.50;;;21.50;57.50;;;;;;5058639;28;20472;-83
2023/06/01 00:26:10;;;;;;;;;;;;;;;;;;;;;
2023/06/01 00:28:37;;;;;;;2.20;1.97;;;21.40;57.90;;;;;;5047772;28;20556;-82
2023/06/01 00:31:04;;;;;;;2.03;1.87;;;21.40;58.20;;;;;;5035966;28;20493;-81
2023/06/01 00:33:31;;;;;;;2.20;1.87;;;21.40;58.30;;;;;;5036211;28;20460;-83
2023/06/01 00:36:02;;;;;;;3.30;1.90;;;21.40;58.60;;;;;;5033646;28;20460;-82
2023/06/01 00:38:29;;;;;;;1.90;1.80;;;21.30;58.80;;;;;;5031435;28;21700;-83
2023/06/01 00:40:58;;;;;;;2.80;1.87;;;21.30;59.00;;;;;;5028629;28;20575;-84
2023/06/01 00:43:27;;;;;;;2.13;1.70;;;21.30;59.40;;;;;;5034577;28;20464;-84
2023/06/01 00:45:54;;;;;;;4.03;1.80;;;21.30;59.10;;;;;;5026880;28;20463;-81
2023/06/01 00:48:24;;;;;;;2.10;1.90;;;21.30;59.20;;;;;;4995601;28;20826;-85
2023/06/01 00:50:52;;;;;;;2.43;1.97;;;21.20;59.50;;;;;;5029020;28;20532;-84
2023/06/01 00:53:20;;;;;;;1.93;1.73;;;21.20;59.50;;;;;;5029841;28;20457;-83
2023/06/01 00:55:52;;;;;;;2.33;1.70;;;21.10;59.60;;;;;;5030288;28;20523;-83
2023/06/01 00:58:21;;;;;;;1.77;1.67;;;21.30;59.80;;;;;;5033399;28;20489;-84
2023/06/01 01:00:53;;;;;;;2.83;1.53;;;21.10;59.70;;;;;;5029186;28;20484;-84
2023/06/01 01:03:26;;;;;;;4.70;1.87;;;21.10;60.00;;;;;;5029487;28;20612;-84
2023/06/01 01:06:22;;;;;;;2.17;1.70;;;20.90;60.40;;;;;;5035850;28;20449;-85
2023/06/01 01:09:00;;;;;;;1.93;1.73;;;20.90;60.70;;;;;;5028618;28;20462;-84
2023/06/01 01:11:30;;;;;;;2.70;1.90;;;20.80;60.80;;;;;;5040007;28;20460;-82
2023/06/01 01:14:14;;;;;;;5.27;2.07;;;20.70;61.10;;;;;;5028935;28;20490;-82
2023/06/01 01:16:57;;;;;;;2.60;1.73;;;20.70;61.70;;;;;;5034673;28;20506;-83
2023/06/01 01:19:35;;;;;;;2.63;1.57;;;20.70;61.80;;;;;;5033104;28;20463;-82
2023/06/01 01:22:34;;;;;;;2.80;1.63;;;20.80;61.60;;;;;;5029102;28;20460;-85
2023/06/01 01:25:36;;;;;;;3.93;1.70;;;20.70;61.80;;;;;;5030946;28;20484;-83
2023/06/01 01:28:12;;;;;;;5.53;1.70;;;20.70;61.60;;;;;;5026029;28;20511;-82
2023/06/01 01:30:42;;;;;;;3.93;1.47;;;20.70;62.00;;;;;;5028959;28;20453;-82
2023/06/01 01:33:13;;;;;;;2.10;1.87;;;20.70;61.80;;;;;;5037486;28;20452;-85
2023/06/01 01:35:41;;;;;;;3.70;1.70;;;20.70;62.00;;;;;;5028224;28;20925;-83
2023/06/01 01:38:13;;;;;;;2.80;1.97;;;20.60;62.40;;;;;;5029920;28;20501;-84
2023/06/01 01:40:40;;;;;;;3.83;1.47;;;20.60;63.50;;;;;;5028736;28;20474;-81
2023/06/01 01:43:07;;;;;;;2.23;1.60;;;20.50;62.70;;;;;;5035045;28;20465;-82
2023/06/01 01:45:34;;;;;;;2.33;1.80;;;20.60;62.90;;;;;;5030288;28;20489;-83
2023/06/01 01:48:26;;;;;;;2.33;1.63;;;20.50;63.10;;;;;;5033186;28;20468;-82
2023/06/01 01:50:58;;;;;;;1.90;1.70;;;20.40;63.50;;;;;;5038819;28;20460;-82
2023/06/01 01:53:26;;;;;;;2.73;2.40;;;20.40;63.50;;;;;;5034596;28;20452;-83
2023/06/01 01:55:55;;;;;;;4.33;2.00;;;20.40;63.90;;;;;;5035985;28;20456;-83
2023/06/01 01:58:23;;;;;;;3.50;1.80;;;20.30;64.50;;;;;;5034788;28;20566;-82
2023/06/01 02:00:52;;;;;;;2.77;2.10;;;20.20;65.00;;;;;;5031436;28;20475;-83
2023/06/01 02:03:19;;;;;;;3.80;2.10;;;20.20;65.30;;;;;;5033320;28;20491;-81
2023/06/01 02:05:46;;;;;;;2.60;2.10;;;20.10;65.40;;;;;;5028822;28;20487;-84
2023/06/01 02:08:12;;;;;;;2.23;1.77;;;20.00;65.70;;;;;;5030307;28;20907;-84
2023/06/01 02:10:40;;;;;;;2.47;2.10;;;19.90;66.10;;;;;;5029901;28;20537;-82
2023/06/01 02:13:07;;;;;;;3.37;1.90;;;19.80;66.70;;;;;;5031314;28;20766;-83
2023/06/01 02:15:34;;;;;;;2.50;2.00;;;19.70;67.10;;;;;;5030307;28;20461;-82
2023/06/01 02:18:02;;;;;;;2.23;2.03;;;19.70;67.70;;;;;;5029322;28;20559;-85
2023/06/01 02:20:28;;;;;;;4.43;2.10;;;19.60;68.40;;;;;;5033437;28;20917;-84
2023/06/01 02:22:55;;;;;;;3.00;2.00;;;19.50;68.90;;;;;;5030127;28;20470;-84
2023/06/01 02:25:22;;;;;;;2.30;2.10;;;19.40;69.30;;;;;;5029527;28;20516;-83
2023/06/01 02:27:48;;;;;;;3.00;1.83;;;19.40;69.80;;;;;;5029734;28;20542;-85
2023/06/01 02:30:16;;;;;;;2.50;2.30;;;19.40;70.50;;;;;;5032001;28;20467;-84
2023/06/01 02:32:45;;;;;;;2.50;2.30;;;19.30;70.80;;;;;;5037605;28;20456;-82
2023/06/01 02:35:11;;;;;;;3.43;1.90;;;19.20;71.50;;;;;;5047000;28;20494;-82
2023/06/01 02:37:38;;;;;;;2.80;2.13;;;19.20;72.20;;;;;;5038076;28;20583;-84
2023/06/01 02:40:10;;;;;;;2.20;2.00;;;19.10;72.70;;;;;;5034330;28;20456;-84
2023/06/01 02:42:38;;;;;;;2.70;2.50;;;19.00;73.20;;;;;;5035318;28;20461;-85
2023/06/01 02:45:09;;;;;;;4.00;2.43;;;19.00;73.50;;;;;;5035508;28;20479;-85
2023/06/01 02:47:37;;;;;;;2.30;2.10;;;19.00;73.80;;;;;;5046787;28;20574;-84
2023/06/01 02:50:05;;;;;;;2.77;2.10;;;19.00;74.20;;;;;;5050269;28;20476;-84
2023/06/01 02:52:31;;;;;;;2.23;2.00;;;19.00;74.50;;;;;;5025244;28;20461;-81
2023/06/01 02:54:58;;;;;;;2.53;2.17;;;18.90;74.70;;;;;;5011163;28;20518;-84
2023/06/01 02:57:25;;;;;;;2.23;1.90;;;18.80;75.10;;;;;;5034477;28;20476;-84
2023/06/01 02:59:51;;;;;;;3.07;2.03;;;18.80;75.50;;;;;;5036916;28;20469;-84
2023/06/01 03:02:18;;;;;;;3.10;1.80;;;18.90;75.70;;;;;;5038972;28;20467;-83
2023/06/01 03:04:45;;;;;;;2.50;2.30;;;18.90;75.90;;;;;;5052713;28;20473;-83
2023/06/01 03:07:12;;;;;;;3.47;2.33;;;18.90;76.00;;;;;;5057371;28;20471;-82
2023/06/01 03:09:39;;;;;;;2.53;2.33;;;18.90;76.00;;;;;;5038357;28;20457;-82
2023/06/01 03:12:06;;;;;;;2.13;1.77;;;18.90;76.20;;;;;;5026840;28;20979;-83
2023/06/01 03:14:33;;;;;;;3.20;2.50;;;18.90;76.50;;;;;;5021348;28;20467;-83
2023/06/01 03:17:00;;;;;;;3.03;2.30;;;18.90;76.50;;;;;;5025672;28;20477;-84
2023/06/01 03:19:27;;;;;;;2.90;2.27;;;18.80;76.70;;;;;;5025747;28;20528;-83
2023/06/01 03:21:54;;;;;;;2.43;2.10;;;18.80;76.80;;;;;;5032396;28;21070;-82
2023/06/01 03:24:22;;;;;;;2.73;2.47;;;18.80;77.10;;;;;;5024860;28;20871;-85
2023/06/01 03:26:50;;;;;;;2.40;2.07;;;18.60;77.50;;;;;;5030432;28;21128;-82
2023/06/01 03:29:17;;;;;;;4.07;2.60;;;18.50;78.50;;;;;;5030456;28;20932;-84
2023/06/01 03:31:44;;;;;;;3.77;2.53;;;18.50;79.00;;;;;;5029373;28;20452;-85
2023/06/01 03:34:11;;;;;;;3.33;2.77;;;18.50;79.60;;;;;;5014969;28;20601;-84
2023/06/01 03:36:38;;;;;;;9.43;2.67;;;18.40;79.80;;;;;;5015832;28;20930;-83
2023/06/01 03:39:08;;;;;;;3.00;2.70;;;18.50;80.00;;;;;;5027933;28;20475;-82
2023/06/01 03:41:35;;;;;;;3.20;2.70;;;18.40;80.50;;;;;;5035587;28;20472;-85
2023/06/01 03:44:02;;;;;;;4.27;2.63;;;18.30;81.20;;;;;;5036335;28;20457;-82
2023/06/01 03:46:29;;;;;;;4.63;3.20;;;18.20;81.90;;;;;;5038733;28;20478;-82
2023/06/01 03:48:56;;;;;;;5.37;2.77;;;18.30;81.90;;;;;;5032865;28;20469;-82
2023/06/01 03:51:23;;;;;;;3.80;2.60;;;18.40;81.70;;;;;;5027749;28;20518;-83
2023/06/01 03:53:51;;;;;;;5.13;2.60;;;18.40;82.00;;;;;;5043052;28;20465;-82
2023/06/01 03:56:19;;;;;;;3.57;2.80;;;18.40;82.30;;;;;;5046518;28;20740;-82
2023/06/01 03:58:46;;;;;;;4.80;2.40;;;18.30;83.00;;;;;;5027831;28;20655;-82
2023/06/01 04:01:16;;;;;;;3.90;3.40;;;18.30;83.20;;;;;;5031832;28;20472;-84
2023/06/01 04:03:43;;;;;;;5.30;3.10;;;18.30;83.90;;;;;;5034247;28;20476;-85
2023/06/01 04:06:12;;;;;;;4.43;2.80;;;18.10;84.50;;;;;;5029925;28;20481;-85
2023/06/01 04:08:47;;;;;;;3.80;3.37;;;18.10;85.80;;;;;;5034946;28;20456;-83
2023/06/01 04:11:17;;;;;;;3.90;2.87;;;17.90;86.70;;;;;;5036369;28;20457;-82
2023/06/01 04:13:44;;;;;;;4.77;3.40;;;17.80;87.80;;;;;;5030041;28;20466;-82
2023/06/01 04:16:11;;;;;;;4.27;3.07;;;17.70;88.70;;;;;;5035881;28;20462;-82
2023/06/01 04:18:37;;;;;;;4.20;3.37;;;17.70;89.30;;;;;;5034380;28;20460;-84
2023/06/01 04:21:06;;;;;;;4.13;3.67;;;17.70;89.70;;;;;;5034210;28;21338;-81
2023/06/01 04:23:33;;;;;;;3.70;3.30;;;17.70;90.00;;;;;;5028803;28;20460;-82
2023/06/01 04:26:00;;;;;;;8.10;3.50;;;17.70;90.10;;;;;;5045154;28;21160;-83
2023/06/01 04:28:27;;;;;;;4.43;3.43;;;17.60;90.70;;;;;;5027738;28;20492;-83
2023/06/01 04:30:55;;;;;;;4.90;3.70;;;17.60;90.60;;;;;;5032372;28;20457;-82
2023/06/01 04:33:24;;;;;;;4.80;4.00;;;17.60;90.70;;;;;;5031551;28;21090;-83
2023/06/01 04:35:54;;;;;;;4.20;3.13;;;17.60;90.90;;;;;;5025330;28;20499;-85
2023/06/01 04:38:21;;;;;;;7.83;4.10;;;17.50;91.10;;;;;;5025539;28;20518;-81
2023/06/01 04:40:48;;;;;;;4.03;3.50;;;17.50;91.30;;;;;;5032958;28;21204;-84
2023/06/01 04:43:18;;;;;;;6.70;4.23;;;17.50;91.50;;;;;;5031120;28;20453;-85
2023/06/01 04:45:46;;;;;;;6.43;4.30;;;17.60;91.50;;;;;;5031603;28;21247;-83
2023/06/01 04:48:16;;;;;;;5.10;3.90;;;17.60;91.60;;;;;;5029155;28;20476;-84
2023/06/01 04:50:44;;;;;;;8.63;4.37;;;17.80;91.10;;;;;;5035753;28;20467;-79
2023/06/01 04:53:11;;;;;;;8.10;5.70;;;17.60;91.20;;;;;;5034491;28;20973;-82
2023/06/01 04:55:38;;;;;;;6.33;4.07;;;17.70;91.50;;;;;;5030338;28;20979;-84
2023/06/01 04:58:05;;;;;;;5.57;3.73;;;17.60;91.60;;;;;;5031349;28;20991;-81
2023/06/01 05:00:32;;;;;;;6.90;4.00;;;17.50;91.80;;;;;;5036348;28;20464;-83
2023/06/01 05:03:02;;;;;;;9.23;5.30;;;17.40;92.10;;;;;;5029230;28;20472;-83
2023/06/01 05:05:29;;;;;;;24.43;21.67;;;17.50;92.20;;;;;;5035371;28;20476;-83
2023/06/01 05:07:56;;;;;;;5.10;4.20;;;17.40;92.40;;;;;;5037837;28;20791;-84
2023/06/01 05:10:23;;;;;;;7.13;5.70;;;17.70;92.40;;;;;;5034995;28;20456;-84
2023/06/01 05:12:50;;;;;;;6.70;4.70;;;17.70;92.00;;;;;;5036062;28;20461;-85
2023/06/01 05:15:16;;;;;;;8.07;5.03;;;17.90;91.90;;;;;;5034394;28;20563;-85
2023/06/01 05:17:43;;;;;;;9.13;5.83;;;18.10;91.20;;;;;;5027860;28;20464;-84
2023/06/01 05:20:11;;;;;;;9.60;5.93;;;18.00;91.00;;;;;;5037833;28;20460;-82
2023/06/01 05:22:38;;;;;;;9.07;6.40;;;17.80;91.30;;;;;;5034734;28;20511;-82
2023/06/01 05:25:05;;;;;;;7.80;5.80;;;17.70;91.60;;;;;;5035585;28;20492;-84
2023/06/01 05:27:33;;;;;;;11.03;5.87;;;17.80;91.80;;;;;;5033928;28;20485;-83
2023/06/01 05:30:00;;;;;;;10.80;6.20;;;17.70;91.80;;;;;;5035701;28;20578;-83
2023/06/01 05:32:27;;;;;;;13.27;6.27;;;17.90;91.80;;;;;;5035786;28;20522;-82
2023/06/01 05:34:54;;;;;;;9.20;6.20;;;18.00;91.20;;;;;;5043617;28;20461;-82
2023/06/01 05:37:20;;;;;;;7.90;5.77;;;18.10;91.30;;;;;;5045600;28;20478;-83
2023/06/01 05:39:47;;;;;;;10.10;7.37;;;18.10;91.10;;;;;;5039558;28;20461;-84
2023/06/01 05:42:14;;;;;;;12.13;8.10;;;18.20;90.70;;;;;;5040561;28;20460;-83
2023/06/01 05:44:40;;;;;;;9.67;7.10;;;18.10;90.90;;;;;;5040729;28;20803;-82
2023/06/01 05:47:07;;;;;;;10.47;7.90;;;18.30;90.70;;;;;;5047900;28;20490;-82
2023/06/01 05:49:35;;;;;;;11.20;7.70;;;18.30;90.40;;;;;;5061027;28;20453;-81
2023/06/01 05:52:04;;;;;;;11.13;7.00;;;18.10;90.80;;;;;;5057611;28;20795;-83
2023/06/01 05:54:30;;;;;;;12.50;7.87;;;18.00;90.90;;;;;;5034629;28;20444;-82
2023/06/01 05:56:57;;;;;;;12.70;8.83;;;18.00;91.20;;;;;;5048527;28;20472;-81
2023/06/01 05:59:24;;;;;;;16.00;9.33;;;18.00;91.20;;;;;;5032871;28;20460;-83
2023/06/01 06:01:51;;;;;;;13.50;9.93;;;18.00;91.30;;;;;;5035200;28;20462;-82
2023/06/01 06:04:18;;;;;;;18.80;10.10;;;18.10;91.20;;;;;;5037492;28;20559;-84
2023/06/01 06:06:45;;;;;;;18.90;9.77;;;17.90;91.10;;;;;;5037470;28;20492;-82
2023/06/01 06:09:15;;;;;;;13.30;10.83;;;18.20;91.30;;;;;;5040815;28;21309;-83
2023/06/01 06:11:43;;;;;;;14.03;9.40;;;18.20;91.00;;;;;;5031776;28;20452;-84
2023/06/01 06:14:11;;;;;;;15.07;8.77;;;18.20;90.70;;;;;;5029786;28;20789;-85
2023/06/01 06:16:39;;;;;;;14.77;9.90;;;18.50;90.00;;;;;;5036081;28;20476;-84
2023/06/01 06:19:06;;;;;;;15.90;10.23;;;18.70;89.20;;;;;;5032311;28;20461;-84
2023/06/01 06:21:33;;;;;;;15.37;10.40;;;18.50;89.10;;;;;;5034772;28;20534;-84
2023/06/01 06:24:00;;;;;;;16.33;10.30;;;18.20;89.90;;;;;;5030600;28;20457;-83
2023/06/01 06:26:27;;;;;;;17.23;11.13;;;18.10;90.20;;;;;;5035949;28;20515;-80
2023/06/01 06:28:54;;;;;;;16.60;11.20;;;18.00;90.50;;;;;;5034109;28;20464;-84
2023/06/01 06:31:21;;;;;;;18.20;10.53;;;18.00;90.70;;;;;;5038052;28;20531;-82
2023/06/01 06:33:49;;;;;;;14.90;9.73;;;18.00;90.70;;;;;;5036571;28;20446;-84
2023/06/01 06:36:16;;;;;;;13.03;9.40;;;18.40;90.00;;;;;;5037450;28;20964;-83
2023/06/01 06:38:43;;;;;;;17.97;10.50;;;18.40;89.40;;;;;;5048170;28;20456;-81
2023/06/01 06:41:11;;;;;;;17.57;11.00;;;18.50;89.20;;;;;;5047296;28;20567;-83
2023/06/01 06:43:37;;;;;;;15.47;11.43;;;18.70;88.90;;;;;;5050317;28;20448;-81
2023/06/01 06:46:04;;;;;;;14.93;10.47;;;18.70;88.70;;;;;;5050919;28;20520;-82
2023/06/01 06:48:31;;;;;;;20.33;11.10;;;18.70;88.10;;;;;;5047554;28;20449;-84
2023/06/01 06:50:58;;;;;;;15.40;9.77;;;18.50;88.50;;;;;;5038349;28;20463;-83
2023/06/01 06:53:24;;;;;;;13.13;10.50;;;18.40;89.40;;;;;;5031895;28;20449;-83
2023/06/01 06:55:52;;;;;;;19.10;12.20;;;18.50;90.00;;;;;;5032275;28;20522;-84
2023/06/01 06:58:18;;;;;;;14.77;10.10;;;18.80;89.50;;;;;;5040588;28;20475;-85
2023/06/01 07:00:45;;;;;;;13.07;10.30;;;18.90;89.00;;;;;;5038176;28;20475;-83
2023/06/01 07:03:12;;;;;;;13.37;9.57;;;19.00;88.60;;;;;;5035595;28;20465;-83
2023/06/01 07:05:39;;;;;;;16.27;10.90;;;19.10;88.00;;;;;;5031644;28;20511;-84
2023/06/01 07:08:07;;;;;;;14.07;10.00;;;19.00;87.30;;;;;;5031410;28;20599;-82
2023/06/01 07:10:34;;;;;;;14.40;11.10;;;19.20;86.70;;;;;;5045331;28;20454;-82
2023/06/01 07:13:01;;;;;;;18.93;10.50;;;19.10;86.70;;;;;;5054246;28;20492;-81
2023/06/01 07:15:28;;;;;;;13.23;9.83;;;19.10;86.20;;;;;;5055238;28;20453;-82
2023/06/01 07:17:55;;;;;;;13.80;9.20;;;19.20;86.10;;;;;;5041476;28;20492;-83
2023/06/01 07:20:21;;;;;;;14.03;9.40;;;19.10;85.90;;;;;;5049042;28;20453;-83
2023/06/01 07:22:49;;;;;;;13.33;9.37;;;19.00;86.30;;;;;;5039628;28;20462;-83
2023/06/01 07:25:18;;;;;;;13.73;9.87;;;19.00;87.40;;;;;;5042839;28;21756;-84
2023/06/01 07:27:48;;;;;;;11.30;10.10;;;19.00;86.10;;;;;;5039634;28;20468;-83
2023/06/01 07:30:15;;;;;;;15.30;10.73;;;19.00;86.00;;;;;;5035474;28;20456;-84
2023/06/01 07:32:42;;;;;;;12.30;9.93;;;19.10;85.60;;;;;;5043291;28;20436;-82
2023/06/01 07:35:09;;;;;;;13.47;9.70;;;19.10;85.30;;;;;;5038063;28;20494;-82
2023/06/01 07:37:36;;;;;;;14.80;9.57;;;19.10;84.90;;;;;;5039524;28;20905;-82
2023/06/01 07:40:05;;;;;;;13.57;10.10;;;19.30;85.10;;;;;;5044932;28;20485;-84
2023/06/01 07:42:34;;;;;;;19.27;12.03;;;19.40;84.50;;;;;;5044776;28;20437;-84
2023/06/01 07:45:01;;;;;;;17.10;11.27;;;19.50;83.70;;;;;;5043912;28;20455;-83
2023/06/01 07:47:29;;;;;;;16.20;11.60;;;19.40;83.20;;;;;;5061320;28;20539;-82
2023/06/01 07:49:56;;;;;;;17.43;10.50;;;19.40;83.20;;;;;;5063202;28;20536;-81
2023/06/01 07:52:23;;;;;;;13.93;10.83;;;19.50;83.10;;;;;;5058112;28;20444;-81
2023/06/01 07:54:50;;;;;;;16.37;11.67;;;19.40;82.60;;;;;;5045639;28;20456;-82
2023/06/01 07:57:30;;;;;;;15.47;11.03;;;19.40;82.70;;;;;;5059152;28;20500;-82
2023/06/01 07:59:57;;;;;;;14.93;9.70;;;19.30;82.60;;;;;;5053641;28;20436;-85
2023/06/01 08:02:25;;;;;;;16.33;10.10;;;19.40;82.80;;;;;;5061347;28;20448;-82
2023/06/01 08:04:56;;;;;;;19.23;11.60;;;19.70;82.20;;;;;;5052082;28;20455;-83
2023/06/01 08:07:27;;;;;;;15.20;10.20;;;20.00;80.30;;;;;;5053705;28;20479;-82
2023/06/01 08:09:54;;;;;;;18.97;11.40;;;20.10;79.60;;;;;;5060253;28;20436;-82
2023/06/01 08:12:21;;;;;;;17.10;10.73;;;20.00;79.20;;;;;;5055889;28;20456;-83
2023/06/01 08:14:48;;;;;;;13.80;10.00;;;20.00;79.00;;;;;;5048368;28;20437;-82
2023/06/01 08:17:15;;;;;;;14.97;10.87;;;20.10;78.70;;;;;;5057222;28;20464;-84
2023/06/01 08:19:42;;;;;;;14.67;10.10;;;19.90;77.70;;;;;;5055088;28;20456;-84
2023/06/01 08:22:09;;;;;;;17.33;10.17;;;20.00;79.00;;;;;;5058486;28;20451;-82
2023/06/01 08:24:35;;;;;;;19.17;11.40;;;20.10;77.50;;;;;;5055788;28;20448;-83
2023/06/01 08:27:14;;;;;;;14.40;10.03;;;20.20;77.30;;;;;;5057310;28;20483;-82
2023/06/01 08:29:41;;;;;;;14.87;9.80;;;20.20;76.60;;;;;;5060234;28;20460;-83
2023/06/01 08:32:09;;;;;;;12.70;9.73;;;20.30;76.50;;;;;;5061445;28;20567;-82
2023/06/01 08:34:36;;;;;;;15.23;11.40;;;20.30;76.00;;;;;;5060962;28;20442;-82
2023/06/01 08:37:03;;;;;;;13.10;10.20;;;20.30;75.40;;;;;;5056924;28;20472;-82
2023/06/01 08:39:30;;;;;;;14.87;10.50;;;20.40;75.60;;;;;;5066192;28;20570;-80
2023/06/01 08:42:20;;;;;;;12.50;9.53;;;20.60;74.60;;;;;;5060715;28;20445;-85
2023/06/01 08:44:48;;;;;;;17.00;11.60;;;20.90;73.80;;;;;;5035937;28;20449;-83
2023/06/01 08:47:17;;;;;;;14.67;10.30;;;21.10;72.10;;;;;;5030916;28;20490;-82
2023/06/01 08:49:45;;;;;;;17.47;11.20;;;21.30;71.00;;;;;;5032135;28;20456;-82
2023/06/01 08:52:13;;;;;;;16.03;10.50;;;21.50;69.20;;;;;;5032072;28;20445;-81
2023/06/01 08:54:40;;;;;;;14.53;10.70;;;21.60;69.20;;;;;;5038517;28;20531;-83
2023/06/01 08:57:07;;;;;;;16.23;10.40;;;22.00;68.10;;;;;;5032536;28;20510;-83
2023/06/01 08:59:36;;;;;;;17.47;12.60;;;22.20;66.10;;;;;;5033769;28;20483;-83
2023/06/01 09:02:03;;;;;;;15.57;11.47;;;22.40;65.40;;;;;;5033094;28;21046;-84
2023/06/01 09:04:34;;;;;;;13.70;11.03;;;22.80;64.50;;;;;;5038177;28;20463;-83
2023/06/01 09:07:02;;;;;;;13.37;10.17;;;23.20;62.40;;;;;;5039528;28;20523;-83
2023/06/01 09:09:29;;;;;;;13.90;9.90;;;23.80;60.00;;;;;;5039683;28;20436;-81
2023/06/01 09:12:16;;;;;;;13.73;9.87;;;26.10;55.60;;;;;;5039518;28;20921;-81
2023/06/01 09:14:42;;;;;;;11.90;10.30;;;26.40;53.30;;;;;;5038362;28;20448;-83
2023/06/01 09:17:29;;;;;;;14.17;10.33;;;26.20;52.80;;;;;;5048934;28;20452;-81
2023/06/01 09:19:56;;;;;;;13.10;10.03;;;25.90;52.30;;;;;;5049443;28;20434;-82
2023/06/01 09:22:23;;;;;;;13.87;10.60;;;26.00;52.40;;;;;;5055876;28;20457;-80
2023/06/01 09:24:59;;;;;;;12.27;9.63;;;27.00;50.40;;;;;;5060833;28;20484;-83
2023/06/01 09:27:27;;;;;;;12.23;10.03;;;27.10;49.30;;;;;;5059735;28;20488;-83
2023/06/01 09:29:55;;;;;;;11.23;9.17;;;26.00;50.10;;;;;;5060744;28;20513;-81
2023/06/01 09:32:22;;;;;;;10.23;9.07;;;25.20;51.80;;;;;;5060543;28;20445;-82
2023/06/01 09:34:49;;;;;;;11.93;9.07;;;25.60;51.70;;;;;;5056571;28;20463;-83
2023/06/01 09:37:16;;;;;;;13.60;9.90;;;26.40;49.90;;;;;;5051169;28;20468;-83
2023/06/01 09:39:44;;;;;;;9.93;8.93;;;28.80;46.10;;;;;;5053755;28;20460;-83
2023/06/01 09:42:10;;;;;;;10.77;9.67;;;29.00;45.00;;;;;;5052338;28;20447;-83
2023/06/01 09:44:39;;;;;;;10.73;9.27;;;28.80;44.10;;;;;;5055521;28;20441;-84
2023/06/01 09:47:12;;;;;;;10.63;9.47;;;28.40;44.80;;;;;;5046166;28;20559;-84
2023/06/01 09:49:43;;;;;;;11.77;9.40;;;28.00;44.70;;;;;;5032737;28;20453;-84
2023/06/01 09:52:16;;;;;;;10.83;8.83;;;28.20;45.30;;;;;;5036641;28;20449;-82
2023/06/01 09:54:45;;;;;;;10.07;8.97;;;28.40;44.80;;;;;;5038578;28;20480;-82
2023/06/01 09:57:19;;;;;;;15.63;9.43;;;28.50;44.00;;;;;;5036855;28;20495;-83
2023/06/01 09:59:46;;;;;;;9.13;8.17;;;28.30;44.10;;;;;;5036539;28;22543;-83
2023/06/01 10:02:16;;;;;;;9.93;8.13;;;28.20;44.50;;;;;;5032525;28;21153;-82
2023/06/01 10:04:58;;;;;;;8.67;7.83;;;29.40;43.60;;;;;;5036185;28;21275;-83
2023/06/01 10:07:31;;;;;;;8.83;8.03;;;30.10;40.90;;;;;;5033334;28;20494;-85
2023/06/01 10:10:02;;;;;;;9.47;8.53;;;29.90;41.40;;;;;;5037591;28;20456;-84
2023/06/01 10:12:31;;;;;;;7.50;6.80;;;29.20;41.10;;;;;;5038636;28;20590;-85
2023/06/01 10:15:01;;;;;;;8.20;7.27;;;29.20;42.20;;;;;;5035299;28;20487;-83
2023/06/01 10:17:30;;;;;;;7.13;6.47;;;29.70;41.20;;;;;;5036535;28;20502;-85
2023/06/01 10:19:58;;;;;;;7.90;7.20;;;29.10;40.80;;;;;;5037744;28;20548;-85
2023/06/01 10:22:25;;;;;;;8.50;7.63;;;28.70;40.60;;;;;;5034071;28;20491;-85
2023/06/01 10:24:58;;;;;;;8.27;7.47;;;28.50;40.80;;;;;;5032276;28;22080;-84
2023/06/01 10:27:38;;;;;;;7.53;6.83;;;28.80;40.60;;;;;;5037250;28;20494;-84
2023/06/01 10:30:09;;;;;;;7.10;6.40;;;29.70;39.60;;;;;;5035791;28;20461;-85
2023/06/01 10:32:48;;;;;;;7.03;6.43;;;28.80;39.70;;;;;;5036958;28;20452;-83
2023/06/01 10:35:41;;;;;;;8.37;7.47;;;28.50;40.20;;;;;;5040459;28;20450;-83
2023/06/01 10:38:12;;;;;;;8.57;7.87;;;28.30;41.00;;;;;;5030861;28;20488;-84
2023/06/01 10:40:40;;;;;;;7.83;7.03;;;28.10;41.60;;;;;;5038756;28;20455;-84
2023/06/01 10:43:24;;;;;;;7.33;6.53;;;28.30;41.10;;;;;;5032316;28;20480;-84
2023/06/01 10:45:52;;;;;;;6.77;6.17;;;28.10;41.10;;;;;;5040542;28;20491;-84
2023/06/01 10:48:52;;;;;;;7.40;6.70;;;27.90;41.40;;;;;;5034812;28;20507;-82
2023/06/01 10:51:20;;;;;;;8.10;7.30;;;29.50;39.00;;;;;;5035932;28;20513;-85
2023/06/01 10:53:47;;;;;;;8.43;7.53;;;30.50;37.50;;;;;;5034256;28;20460;-84
2023/06/01 10:56:16;;;;;;;7.90;7.20;;;30.40;37.40;;;;;;5038410;28;20508;-84
2023/06/01 10:58:43;;;;;;;7.23;6.50;;;30.00;37.90;;;;;;5035401;28;20844;-85
2023/06/01 11:01:17;;;;;;;8.13;7.00;;;29.50;38.30;;;;;;5040349;28;22060;-83
2023/06/01 11:03:45;;;;;;;8.80;7.73;;;29.30;38.90;;;;;;5042312;28;20445;-85
2023/06/01 11:06:46;;;;;;;8.10;7.40;;;29.40;39.40;;;;;;5040367;28;20555;-84
2023/06/01 11:09:15;;;;;;;9.80;8.80;;;28.90;39.10;;;;;;4997826;28;21753;-85
2023/06/01 11:11:48;;;;;;;9.47;8.47;;;28.10;41.20;;;;;;5042513;28;20461;-84
2023/06/01 11:14:16;;;;;;;9.27;8.37;;;27.80;41.90;;;;;;5035106;28;20456;-85
2023/06/01 11:16:43;;;;;;;10.57;8.07;;;28.00;42.10;;;;;;5044032;28;20476;-84
2023/06/01 11:19:10;;;;;;;8.80;7.90;;;29.00;41.30;;;;;;5038208;28;20445;-85
2023/06/01 11:21:39;;;;;;;11.30;9.60;;;28.80;40.70;;;;;;5041022;28;20455;-85
2023/06/01 11:24:15;;;;;;;10.23;9.13;;;28.40;41.50;;;;;;5037038;28;20567;-83
2023/06/01 11:26:42;;;;;;;7.83;7.00;;;28.20;41.60;;;;;;5050916;28;20480;-84
2023/06/01 11:29:23;;;;;;;7.67;6.90;;;28.40;41.20;;;;;;5061165;28;20522;-84
2023/06/01 11:31:54;;;;;;;9.10;7.00;;;30.50;36.90;;;;;;5056816;28;20556;-83
2023/06/01 11:34:37;;;;;;;8.03;7.23;;;29.80;37.30;;;;;;5044158;28;20448;-82
2023/06/01 11:37:17;;;;;;;9.20;8.10;;;29.00;39.00;;;;;;5034430;28;20477;-82
2023/06/01 11:40:04;;;;;;;7.77;6.97;;;29.00;38.90;;;;;;5046120;28;20523;-84
2023/06/01 11:42:40;;;;;;;10.70;9.60;;;29.20;39.20;;;;;;5043447;28;20465;-83
2023/06/01 11:45:16;;;;;;;9.17;8.20;;;29.40;39.10;;;;;;5042714;28;20440;-85
2023/06/01 11:47:47;;;;;;;9.60;7.97;;;29.50;38.90;;;;;;5039890;28;20575;-85
2023/06/01 11:50:26;;;;;;;12.47;11.00;;;30.10;38.00;;;;;;5042453;28;20478;-83
2023/06/01 11:53:00;;;;;;;9.10;8.20;;;29.60;38.40;;;;;;5044021;28;20443;-85
2023/06/01 11:56:01;;;;;;;8.63;7.70;;;28.70;39.70;;;;;;5052920;28;20473;-82
2023/06/01 11:58:43;;;;;;;11.43;8.90;;;28.70;40.20;;;;;;5056088;28;20437;-84
2023/06/01 12:01:14;;;;;;;8.53;7.63;;;29.30;39.00;;;;;;5062668;28;20475;-84
2023/06/01 12:03:47;;;;;;;10.77;8.90;;;29.50;38.60;;;;;;5054430;28;20457;-83
2023/06/01 12:06:25;;;;;;;10.10;8.57;;;29.40;38.60;;;;;;5061587;28;20462;-83
2023/06/01 12:08:58;;;;;;;9.10;8.20;;;29.20;38.60;;;;;;5063012;28;20444;-85
2023/06/01 12:11:30;;;;;;;9.23;8.20;;;29.40;38.20;;;;;;5064675;28;20527;-84
2023/06/01 12:14:05;;;;;;;9.77;8.77;;;29.20;38.40;;;;;;5058155;28;20461;-83
2023/06/01 12:16:58;;;;;;;8.40;7.60;;;29.00;39.20;;;;;;5057588;28;20546;-85
2023/06/01 12:19:48;;;;;;;10.37;9.37;;;28.80;39.80;;;;;;5061431;28;20437;-85
2023/06/01 12:23:09;;;;;;;;;;;;;;;;;;;;;
2023/06/01 12:26:00;;;;;;;9.60;8.60;;;28.50;40.20;;;;;;4965946;28;20449;-83
2023/06/01 12:29:03;;;;;;;11.20;10.10;;;28.50;40.20;;;;;;5029039;28;20495;-83
2023/06/01 12:31:37;;;;;;;10.97;9.10;;;28.40;40.00;;;;;;5040451;28;20459;-82
2023/06/01 12:34:18;;;;;;;10.80;9.63;;;28.60;40.00;;;;;;5044042;28;20461;-84
2023/06/01 12:37:18;;;;;;;10.67;9.20;;;28.70;39.50;;;;;;5041517;28;20469;-85
2023/06/01 12:40:06;;;;;;;11.90;9.97;;;28.70;39.10;;;;;;5044832;28;20489;-86
2023/06/01 12:42:47;;;;;;;10.97;9.83;;;28.40;38.90;;;;;;5039072;28;20456;-83
2023/06/01 12:45:44;;;;;;;11.03;9.43;;;28.40;39.80;;;;;;5042577;28;20559;-82
2023/06/01 12:48:48;;;;;;;11.10;9.70;;;29.20;38.80;;;;;;5050935;28;20468;-86
2023/06/01 12:51:39;;;;;;;13.93;10.00;;;30.00;37.70;;;;;;5045568;28;20475;-83
2023/06/01 12:54:19;;;;;;;11.43;9.83;;;29.40;38.00;;;;;;5053703;28;20433;-84
2023/06/01 13:00:00;;;;;;;12.20;8.77;;;29.10;38.90;;;;;;5024915;28;20478;-86
2023/06/01 13:02:59;;;;;;;11.27;9.70;;;28.80;39.60;;;;;;5025689;28;22669;-83
2023/06/01 13:05:55;;;;;;;12.10;9.30;;;28.90;39.40;;;;;;5039195;28;20488;-86